sensor_id;sensor_type;location;lat;lon;timestamp;P1;durP1;ratioP1;P2;durP2;ratioP2
5591;SDS011;2818;49.790;9.958;2022-10-22T00:00:00;10.70;;;6.97;;
5591;SDS011;2818;49.790;9.958;2022-10-22T00:02:27;7.93;;;6.77;;
5591;SDS011;2818;49.790;9.958;2022-10-22T00:04:54;7.73;;;7.03;;
5591;SDS011;2818;49.790;9.958;2022-10-22T00:07:22;8.20;;;7.40;;
5591;SDS011;2818;49.790;9.958;2022-10-22T00:09:49;11.10;;;7.30;;
5591;SDS011;2818;49.790;9.958;2022-10-22T00:12:16;11.13;;;8.27;;
5591;SDS011;2818;49.790;9.958;2022-10-22T00:14:43;8.70;;;7.90;;
5591;SDS011;2818;49.790;9.958;2022-10-22T00:17:11;8.90;;;8.00;;
5591;SDS011;2818;49.790;9.958;2022-10-22T00:19:38;13.03;;;8.23;;
5591;SDS011;2818;49.790;9.958;2022-10-22T00:22:06;12.60;;;8.10;;
5591;SDS011;2818;49.790;9.958;2022-10-22T00:24:33;9.80;;;7.90;;
5591;SDS011;2818;49.790;9.958;2022-10-22T00:27:02;9.50;;;8.53;;
5591;SDS011;2818;49.790;9.958;2022-10-22T00:29:29;8.90;;;8.00;;
5591;SDS011;2818;49.790;9.958;2022-10-22T00:31:56;10.20;;;9.13;;
5591;SDS011;2818;49.790;9.958;2022-10-22T00:34:23;8.77;;;7.97;;
5591;SDS011;2818;49.790;9.958;2022-10-22T00:36:50;11.10;;;8.13;;
5591;SDS011;2818;49.790;9.958;2022-10-22T00:39:19;9.60;;;7.90;;
5591;SDS011;2818;49.790;9.958;2022-10-22T00:41:47;8.23;;;7.43;;
5591;SDS011;2818;49.790;9.958;2022-10-22T00:47:19;8.40;;;7.60;;
5591;SDS011;2818;49.790;9.958;2022-10-22T00:49:49;10.43;;;8.90;;
5591;SDS011;2818;49.790;9.958;2022-10-22T00:52:19;10.83;;;8.00;;
5591;SDS011;2818;49.790;9.958;2022-10-22T00:54:46;10.33;;;8.33;;
5591;SDS011;2818;49.790;9.958;2022-10-22T00:57:14;11.20;;;8.67;;
5591;SDS011;2818;49.790;9.958;2022-10-22T00:59:41;11.93;;;8.03;;
5591;SDS011;2818;49.790;9.958;2022-10-22T01:02:08;11.40;;;8.17;;
5591;SDS011;2818;49.790;9.958;2022-10-22T01:04:35;12.50;;;7.93;;
5591;SDS011;2818;49.790;9.958;2022-10-22T01:07:02;8.83;;;7.13;;
5591;SDS011;2818;49.790;9.958;2022-10-22T01:12:24;5.07;;;4.67;;
5591;SDS011;2818;49.790;9.958;2022-10-22T01:31:18;4.40;;;4.00;;
5591;SDS011;2818;49.790;9.958;2022-10-22T01:33:47;4.97;;;4.57;;
5591;SDS011;2818;49.790;9.958;2022-10-22T01:36:18;6.00;;;4.73;;
5591;SDS011;2818;49.790;9.958;2022-10-22T01:38:46;5.13;;;4.37;;
5591;SDS011;2818;49.790;9.958;2022-10-22T01:41:14;4.57;;;4.17;;
5591;SDS011;2818;49.790;9.958;2022-10-22T01:43:41;6.50;;;5.40;;
5591;SDS011;2818;49.790;9.958;2022-10-22T01:46:09;9.30;;;7.07;;
5591;SDS011;2818;49.790;9.958;2022-10-22T01:49:21;14.97;;;8.10;;
5591;SDS011;2818;49.790;9.958;2022-10-22T01:59:58;19.57;;;9.20;;
5591;SDS011;2818;49.790;9.958;2022-10-22T02:05:06;13.30;;;9.20;;
5591;SDS011;2818;49.790;9.958;2022-10-22T02:07:40;10.73;;;9.60;;
5591;SDS011;2818;49.790;9.958;2022-10-22T02:10:11;14.27;;;9.47;;
5591;SDS011;2818;49.790;9.958;2022-10-22T02:12:40;7.30;;;6.60;;
5591;SDS011;2818;49.790;9.958;2022-10-22T02:15:09;7.73;;;7.00;;
5591;SDS011;2818;49.790;9.958;2022-10-22T02:17:38;7.03;;;6.53;;
5591;SDS011;2818;49.790;9.958;2022-10-22T02:20:12;9.13;;;5.90;;
5591;SDS011;2818;49.790;9.958;2022-10-22T02:22:40;5.93;;;5.43;;
5591;SDS011;2818;49.790;9.958;2022-10-22T02:25:09;5.43;;;5.03;;
5591;SDS011;2818;49.790;9.958;2022-10-22T02:27:40;9.23;;;4.57;;
5591;SDS011;2818;49.790;9.958;2022-10-22T02:30:14;4.70;;;4.30;;
5591;SDS011;2818;49.790;9.958;2022-10-22T02:32:49;4.00;;;3.70;;
5591;SDS011;2818;49.790;9.958;2022-10-22T02:35:21;4.17;;;3.80;;
5591;SDS011;2818;49.790;9.958;2022-10-22T02:37:51;6.37;;;3.30;;
5591;SDS011;2818;49.790;9.958;2022-10-22T02:40:20;6.40;;;3.30;;
5591;SDS011;2818;49.790;9.958;2022-10-22T02:42:48;3.67;;;3.00;;
5591;SDS011;2818;49.790;9.958;2022-10-22T02:45:16;3.33;;;3.03;;
5591;SDS011;2818;49.790;9.958;2022-10-22T02:47:45;5.43;;;3.23;;
5591;SDS011;2818;49.790;9.958;2022-10-22T02:50:12;3.10;;;2.90;;
5591;SDS011;2818;49.790;9.958;2022-10-22T02:52:39;2.53;;;2.47;;
5591;SDS011;2818;49.790;9.958;2022-10-22T02:55:06;3.03;;;2.63;;
5591;SDS011;2818;49.790;9.958;2022-10-22T02:57:33;7.20;;;2.67;;
5591;SDS011;2818;49.790;9.958;2022-10-22T03:00:00;6.87;;;2.80;;
5591;SDS011;2818;49.790;9.958;2022-10-22T03:02:27;3.63;;;2.90;;
5591;SDS011;2818;49.790;9.958;2022-10-22T03:04:54;3.33;;;2.70;;
5591;SDS011;2818;49.790;9.958;2022-10-22T03:07:21;2.70;;;2.50;;
5591;SDS011;2818;49.790;9.958;2022-10-22T03:09:48;2.40;;;2.30;;
5591;SDS011;2818;49.790;9.958;2022-10-22T03:12:14;2.67;;;2.50;;
5591;SDS011;2818;49.790;9.958;2022-10-22T03:14:41;3.20;;;2.90;;
5591;SDS011;2818;49.790;9.958;2022-10-22T03:17:08;2.93;;;2.63;;
5591;SDS011;2818;49.790;9.958;2022-10-22T03:19:35;4.00;;;2.40;;
5591;SDS011;2818;49.790;9.958;2022-10-22T03:22:06;4.03;;;2.40;;
5591;SDS011;2818;49.790;9.958;2022-10-22T03:24:39;5.73;;;2.20;;
5591;SDS011;2818;49.790;9.958;2022-10-22T03:27:07;3.43;;;2.13;;
5591;SDS011;2818;49.790;9.958;2022-10-22T03:29:36;7.83;;;1.97;;
5591;SDS011;2818;49.790;9.958;2022-10-22T03:32:05;2.60;;;2.40;;
5591;SDS011;2818;49.790;9.958;2022-10-22T03:34:32;4.63;;;2.40;;
5591;SDS011;2818;49.790;9.958;2022-10-22T03:37:00;4.03;;;2.50;;
5591;SDS011;2818;49.790;9.958;2022-10-22T03:39:28;2.57;;;2.37;;
5591;SDS011;2818;49.790;9.958;2022-10-22T03:41:58;2.27;;;2.17;;
5591;SDS011;2818;49.790;9.958;2022-10-22T03:44:26;5.33;;;2.27;;
5591;SDS011;2818;49.790;9.958;2022-10-22T03:46:53;4.20;;;2.60;;
5591;SDS011;2818;49.790;9.958;2022-10-22T03:49:26;2.40;;;2.30;;
5591;SDS011;2818;49.790;9.958;2022-10-22T03:51:53;4.27;;;1.60;;
5591;SDS011;2818;49.790;9.958;2022-10-22T03:54:20;1.70;;;1.70;;
5591;SDS011;2818;49.790;9.958;2022-10-22T03:56:47;3.03;;;2.00;;
5591;SDS011;2818;49.790;9.958;2022-10-22T03:59:14;2.97;;;1.70;;
5591;SDS011;2818;49.790;9.958;2022-10-22T04:01:42;1.80;;;1.70;;
5591;SDS011;2818;49.790;9.958;2022-10-22T04:04:08;2.20;;;2.00;;
5591;SDS011;2818;49.790;9.958;2022-10-22T04:06:35;2.00;;;1.80;;
5591;SDS011;2818;49.790;9.958;2022-10-22T04:09:02;1.70;;;1.70;;
5591;SDS011;2818;49.790;9.958;2022-10-22T04:11:29;3.17;;;1.33;;
5591;SDS011;2818;49.790;9.958;2022-10-22T04:13:56;1.57;;;1.40;;
5591;SDS011;2818;49.790;9.958;2022-10-22T04:16:23;3.43;;;1.87;;
5591;SDS011;2818;49.790;9.958;2022-10-22T04:18:55;1.60;;;1.60;;
5591;SDS011;2818;49.790;9.958;2022-10-22T04:21:22;8.30;;;5.97;;
5591;SDS011;2818;49.790;9.958;2022-10-22T04:23:50;15.73;;;9.57;;
5591;SDS011;2818;49.790;9.958;2022-10-22T04:26:18;2.60;;;2.40;;
5591;SDS011;2818;49.790;9.958;2022-10-22T04:28:46;2.80;;;2.60;;
5591;SDS011;2818;49.790;9.958;2022-10-22T04:31:15;2.63;;;2.53;;
5591;SDS011;2818;49.790;9.958;2022-10-22T04:33:44;3.20;;;2.63;;
5591;SDS011;2818;49.790;9.958;2022-10-22T04:36:16;2.30;;;1.90;;
5591;SDS011;2818;49.790;9.958;2022-10-22T04:38:44;2.20;;;1.73;;
5591;SDS011;2818;49.790;9.958;2022-10-22T04:41:13;2.87;;;2.00;;
5591;SDS011;2818;49.790;9.958;2022-10-22T04:43:43;3.77;;;1.60;;
5591;SDS011;2818;49.790;9.958;2022-10-22T04:46:11;3.60;;;2.00;;
5591;SDS011;2818;49.790;9.958;2022-10-22T04:48:39;3.60;;;2.17;;
5591;SDS011;2818;49.790;9.958;2022-10-22T04:51:07;2.03;;;1.93;;
5591;SDS011;2818;49.790;9.958;2022-10-22T04:53:37;4.50;;;2.00;;
5591;SDS011;2818;49.790;9.958;2022-10-22T04:58:48;2.27;;;2.10;;
5591;SDS011;2818;49.790;9.958;2022-10-22T05:01:17;2.63;;;2.40;;
5591;SDS011;2818;49.790;9.958;2022-10-22T05:03:48;2.57;;;2.00;;
5591;SDS011;2818;49.790;9.958;2022-10-22T05:06:16;3.00;;;1.80;;
5591;SDS011;2818;49.790;9.958;2022-10-22T05:08:46;2.27;;;2.17;;
5591;SDS011;2818;49.790;9.958;2022-10-22T05:11:18;1.70;;;1.60;;
5591;SDS011;2818;49.790;9.958;2022-10-22T05:13:46;2.53;;;2.07;;
5591;SDS011;2818;49.790;9.958;2022-10-22T05:16:14;2.23;;;2.00;;
5591;SDS011;2818;49.790;9.958;2022-10-22T05:18:42;2.10;;;2.00;;
5591;SDS011;2818;49.790;9.958;2022-10-22T05:21:10;2.27;;;2.07;;
5591;SDS011;2818;49.790;9.958;2022-10-22T05:23:40;3.47;;;2.20;;
5591;SDS011;2818;49.790;9.958;2022-10-22T05:26:08;5.93;;;2.20;;
5591;SDS011;2818;49.790;9.958;2022-10-22T05:28:36;3.90;;;1.70;;
5591;SDS011;2818;49.790;9.958;2022-10-22T05:31:03;4.30;;;2.10;;
5591;SDS011;2818;49.790;9.958;2022-10-22T05:33:31;1.90;;;1.80;;
5591;SDS011;2818;49.790;9.958;2022-10-22T05:35:59;4.20;;;2.00;;
5591;SDS011;2818;49.790;9.958;2022-10-22T05:38:26;2.90;;;2.13;;
5591;SDS011;2818;49.790;9.958;2022-10-22T05:41:03;6.50;;;2.30;;
5591;SDS011;2818;49.790;9.958;2022-10-22T05:43:38;2.10;;;1.90;;
5591;SDS011;2818;49.790;9.958;2022-10-22T05:46:06;2.80;;;2.70;;
5591;SDS011;2818;49.790;9.958;2022-10-22T05:48:36;2.30;;;2.10;;
5591;SDS011;2818;49.790;9.958;2022-10-22T05:51:05;5.50;;;2.47;;
5591;SDS011;2818;49.790;9.958;2022-10-22T05:53:35;3.30;;;2.93;;
5591;SDS011;2818;49.790;9.958;2022-10-22T05:56:07;2.73;;;2.63;;
5591;SDS011;2818;49.790;9.958;2022-10-22T05:58:37;3.77;;;2.97;;
5591;SDS011;2818;49.790;9.958;2022-10-22T06:01:08;2.80;;;2.60;;
5591;SDS011;2818;49.790;9.958;2022-10-22T06:03:39;2.57;;;2.47;;
5591;SDS011;2818;49.790;9.958;2022-10-22T06:09:01;4.83;;;4.30;;
5591;SDS011;2818;49.790;9.958;2022-10-22T06:11:36;3.73;;;3.60;;
5591;SDS011;2818;49.790;9.958;2022-10-22T06:14:03;5.50;;;3.40;;
5591;SDS011;2818;49.790;9.958;2022-10-22T06:16:30;5.43;;;4.20;;
5591;SDS011;2818;49.790;9.958;2022-10-22T06:18:58;5.57;;;3.97;;
5591;SDS011;2818;49.790;9.958;2022-10-22T06:21:28;2.80;;;2.70;;
5591;SDS011;2818;49.790;9.958;2022-10-22T06:23:56;2.67;;;2.50;;
5591;SDS011;2818;49.790;9.958;2022-10-22T06:26:25;1.50;;;1.50;;
5591;SDS011;2818;49.790;9.958;2022-10-22T06:28:52;2.03;;;1.93;;
5591;SDS011;2818;49.790;9.958;2022-10-22T06:31:21;2.73;;;2.53;;
5591;SDS011;2818;49.790;9.958;2022-10-22T06:33:48;4.03;;;2.00;;
5591;SDS011;2818;49.790;9.958;2022-10-22T06:36:16;3.70;;;2.00;;
5591;SDS011;2818;49.790;9.958;2022-10-22T06:38:44;2.50;;;1.53;;
5591;SDS011;2818;49.790;9.958;2022-10-22T06:41:15;3.07;;;1.50;;
5591;SDS011;2818;49.790;9.958;2022-10-22T06:43:42;1.70;;;1.60;;
5591;SDS011;2818;49.790;9.958;2022-10-22T06:46:10;3.53;;;1.90;;
5591;SDS011;2818;49.790;9.958;2022-10-22T06:48:47;3.10;;;2.10;;
5591;SDS011;2818;49.790;9.958;2022-10-22T06:51:16;2.30;;;1.73;;
5591;SDS011;2818;49.790;9.958;2022-10-22T06:53:43;2.53;;;1.93;;
5591;SDS011;2818;49.790;9.958;2022-10-22T06:56:15;7.50;;;2.00;;
5591;SDS011;2818;49.790;9.958;2022-10-22T06:58:50;2.43;;;2.07;;
5591;SDS011;2818;49.790;9.958;2022-10-22T07:01:20;2.00;;;1.90;;
5591;SDS011;2818;49.790;9.958;2022-10-22T07:03:50;1.90;;;1.70;;
5591;SDS011;2818;49.790;9.958;2022-10-22T07:06:17;3.17;;;1.73;;
5591;SDS011;2818;49.790;9.958;2022-10-22T07:08:45;2.30;;;2.10;;
5591;SDS011;2818;49.790;9.958;2022-10-22T07:11:13;8.53;;;1.53;;
5591;SDS011;2818;49.790;9.958;2022-10-22T07:13:45;3.80;;;1.70;;
5591;SDS011;2818;49.790;9.958;2022-10-22T07:16:13;4.53;;;1.63;;
5591;SDS011;2818;49.790;9.958;2022-10-22T07:18:41;1.70;;;1.60;;
5591;SDS011;2818;49.790;9.958;2022-10-22T07:21:09;2.50;;;1.50;;
5591;SDS011;2818;49.790;9.958;2022-10-22T07:23:37;3.80;;;2.30;;
5591;SDS011;2818;49.790;9.958;2022-10-22T07:26:05;2.90;;;1.60;;
5591;SDS011;2818;49.790;9.958;2022-10-22T07:28:33;2.00;;;1.50;;
5591;SDS011;2818;49.790;9.958;2022-10-22T07:31:01;2.00;;;1.50;;
5591;SDS011;2818;49.790;9.958;2022-10-22T07:33:28;1.70;;;1.60;;
5591;SDS011;2818;49.790;9.958;2022-10-22T07:35:59;1.80;;;1.70;;
5591;SDS011;2818;49.790;9.958;2022-10-22T07:38:27;7.50;;;1.73;;
5591;SDS011;2818;49.790;9.958;2022-10-22T07:40:54;1.97;;;1.63;;
5591;SDS011;2818;49.790;9.958;2022-10-22T07:43:21;3.60;;;1.50;;
5591;SDS011;2818;49.790;9.958;2022-10-22T07:45:48;2.53;;;1.67;;
5591;SDS011;2818;49.790;9.958;2022-10-22T07:48:15;1.60;;;1.50;;
5591;SDS011;2818;49.790;9.958;2022-10-22T07:50:42;5.03;;;1.50;;
5591;SDS011;2818;49.790;9.958;2022-10-22T07:53:14;2.50;;;1.60;;
5591;SDS011;2818;49.790;9.958;2022-10-22T07:55:41;1.37;;;1.30;;
5591;SDS011;2818;49.790;9.958;2022-10-22T07:58:08;2.10;;;1.60;;
5591;SDS011;2818;49.790;9.958;2022-10-22T08:00:35;1.40;;;1.40;;
5591;SDS011;2818;49.790;9.958;2022-10-22T08:03:02;1.50;;;1.40;;
5591;SDS011;2818;49.790;9.958;2022-10-22T08:05:29;1.37;;;1.37;;
5591;SDS011;2818;49.790;9.958;2022-10-22T08:07:56;2.47;;;1.83;;
5591;SDS011;2818;49.790;9.958;2022-10-22T08:10:23;2.67;;;1.40;;
5591;SDS011;2818;49.790;9.958;2022-10-22T08:12:50;3.13;;;1.50;;
5591;SDS011;2818;49.790;9.958;2022-10-22T08:15:17;5.00;;;1.43;;
5591;SDS011;2818;49.790;9.958;2022-10-22T08:17:43;3.77;;;1.80;;
5591;SDS011;2818;49.790;9.958;2022-10-22T08:20:10;1.40;;;1.30;;
5591;SDS011;2818;49.790;9.958;2022-10-22T08:22:38;1.30;;;1.20;;
5591;SDS011;2818;49.790;9.958;2022-10-22T08:25:05;1.10;;;1.10;;
5591;SDS011;2818;49.790;9.958;2022-10-22T08:27:32;2.53;;;1.33;;
5591;SDS011;2818;49.790;9.958;2022-10-22T08:29:58;1.67;;;1.57;;
5591;SDS011;2818;49.790;9.958;2022-10-22T08:32:25;1.13;;;1.03;;
5591;SDS011;2818;49.790;9.958;2022-10-22T08:34:57;3.53;;;1.10;;
5591;SDS011;2818;49.790;9.958;2022-10-22T08:37:24;1.33;;;1.07;;
5591;SDS011;2818;49.790;9.958;2022-10-22T08:39:51;2.80;;;1.10;;
5591;SDS011;2818;49.790;9.958;2022-10-22T08:48:12;1.67;;;0.93;;
5591;SDS011;2818;49.790;9.958;2022-10-22T08:50:46;1.10;;;1.10;;
5591;SDS011;2818;49.790;9.958;2022-10-22T08:53:17;2.87;;;0.93;;
5591;SDS011;2818;49.790;9.958;2022-10-22T08:55:46;5.57;;;0.90;;
5591;SDS011;2818;49.790;9.958;2022-10-22T09:01:22;1.33;;;0.70;;
5591;SDS011;2818;49.790;9.958;2022-10-22T09:03:58;1.00;;;0.90;;
5591;SDS011;2818;49.790;9.958;2022-10-22T09:06:34;1.50;;;0.97;;
5591;SDS011;2818;49.790;9.958;2022-10-22T09:09:04;3.07;;;0.90;;
5591;SDS011;2818;49.790;9.958;2022-10-22T09:11:42;0.90;;;0.90;;
5591;SDS011;2818;49.790;9.958;2022-10-22T09:14:12;1.07;;;0.70;;
5591;SDS011;2818;49.790;9.958;2022-10-22T09:25:15;0.70;;;0.60;;
5591;SDS011;2818;49.790;9.958;2022-10-22T09:27:48;0.90;;;0.80;;
5591;SDS011;2818;49.790;9.958;2022-10-22T09:30:20;0.80;;;0.80;;
5591;SDS011;2818;49.790;9.958;2022-10-22T09:32:49;2.10;;;0.70;;
5591;SDS011;2818;49.790;9.958;2022-10-22T09:35:27;0.70;;;0.70;;
5591;SDS011;2818;49.790;9.958;2022-10-22T09:38:10;1.27;;;0.80;;
5591;SDS011;2818;49.790;9.958;2022-10-22T09:40:43;1.73;;;0.70;;
5591;SDS011;2818;49.790;9.958;2022-10-22T09:43:17;4.07;;;0.70;;
5591;SDS011;2818;49.790;9.958;2022-10-22T09:45:45;0.63;;;0.60;;
5591;SDS011;2818;49.790;9.958;2022-10-22T09:50:42;1.20;;;0.80;;
5591;SDS011;2818;49.790;9.958;2022-10-22T09:53:24;2.50;;;0.90;;
5591;SDS011;2818;49.790;9.958;2022-10-22T09:55:53;1.63;;;0.80;;
5591;SDS011;2818;49.790;9.958;2022-10-22T09:58:25;0.87;;;0.77;;
5591;SDS011;2818;49.790;9.958;2022-10-22T10:00:57;1.13;;;0.97;;
5591;SDS011;2818;49.790;9.958;2022-10-22T10:03:27;0.80;;;0.80;;
5591;SDS011;2818;49.790;9.958;2022-10-22T10:05:57;0.80;;;0.80;;
5591;SDS011;2818;49.790;9.958;2022-10-22T10:08:31;2.30;;;1.10;;
5591;SDS011;2818;49.790;9.958;2022-10-22T10:11:00;1.20;;;0.70;;
5591;SDS011;2818;49.790;9.958;2022-10-22T10:19:00;0.80;;;0.80;;
5591;SDS011;2818;49.790;9.958;2022-10-22T10:22:04;0.97;;;0.87;;
5591;SDS011;2818;49.790;9.958;2022-10-22T10:24:52;0.80;;;0.80;;
5591;SDS011;2818;49.790;9.958;2022-10-22T10:28:08;1.17;;;1.10;;
5591;SDS011;2818;49.790;9.958;2022-10-22T10:30:20;0.97;;;0.97;;
5591;SDS011;2818;49.790;9.958;2022-10-22T10:41:10;1.27;;;1.00;;
5591;SDS011;2818;49.790;9.958;2022-10-22T11:00:11;2.73;;;0.83;;
5591;SDS011;2818;49.790;9.958;2022-10-22T11:02:49;1.90;;;0.80;;
5591;SDS011;2818;49.790;9.958;2022-10-22T11:05:56;0.80;;;0.80;;
5591;SDS011;2818;49.790;9.958;2022-10-22T11:08:33;0.80;;;0.80;;
5591;SDS011;2818;49.790;9.958;2022-10-22T11:11:18;0.90;;;0.90;;
5591;SDS011;2818;49.790;9.958;2022-10-22T11:13:59;2.20;;;0.97;;
5591;SDS011;2818;49.790;9.958;2022-10-22T11:16:34;1.23;;;0.90;;
5591;SDS011;2818;49.790;9.958;2022-10-22T11:21:37;1.17;;;0.90;;
5591;SDS011;2818;49.790;9.958;2022-10-22T11:29:14;0.83;;;0.83;;
5591;SDS011;2818;49.790;9.958;2022-10-22T11:31:45;1.10;;;1.10;;
5591;SDS011;2818;49.790;9.958;2022-10-22T11:37:04;1.17;;;0.90;;
5591;SDS011;2818;49.790;9.958;2022-10-22T11:42:02;0.73;;;0.63;;
5591;SDS011;2818;49.790;9.958;2022-10-22T11:44:33;1.00;;;0.77;;
5591;SDS011;2818;49.790;9.958;2022-10-22T11:47:17;0.97;;;0.97;;
5591;SDS011;2818;49.790;9.958;2022-10-22T11:52:37;3.47;;;0.87;;
5591;SDS011;2818;49.790;9.958;2022-10-22T11:55:30;1.70;;;0.83;;
5591;SDS011;2818;49.790;9.958;2022-10-22T11:58:00;0.80;;;0.80;;
5591;SDS011;2818;49.790;9.958;2022-10-22T12:00:47;1.33;;;0.97;;
5591;SDS011;2818;49.790;9.958;2022-10-22T12:04:13;1.53;;;0.93;;
5591;SDS011;2818;49.790;9.958;2022-10-22T12:11:44;0.97;;;0.83;;
5591;SDS011;2818;49.790;9.958;2022-10-22T12:14:22;1.03;;;0.90;;
5591;SDS011;2818;49.790;9.958;2022-10-22T12:16:55;1.93;;;0.83;;
5591;SDS011;2818;49.790;9.958;2022-10-22T12:19:30;2.50;;;0.93;;
5591;SDS011;2818;49.790;9.958;2022-10-22T12:24:52;2.67;;;0.80;;
5591;SDS011;2818;49.790;9.958;2022-10-22T12:27:23;0.97;;;0.77;;
5591;SDS011;2818;49.790;9.958;2022-10-22T12:29:59;2.50;;;0.80;;
5591;SDS011;2818;49.790;9.958;2022-10-22T12:32:36;1.90;;;0.90;;
5591;SDS011;2818;49.790;9.958;2022-10-22T12:35:08;1.40;;;0.80;;
5591;SDS011;2818;49.790;9.958;2022-10-22T12:37:41;5.47;;;0.90;;
5591;SDS011;2818;49.790;9.958;2022-10-22T12:40:16;3.13;;;1.10;;
5591;SDS011;2818;49.790;9.958;2022-10-22T12:42:47;1.83;;;1.03;;
5591;SDS011;2818;49.790;9.958;2022-10-22T12:45:15;1.03;;;1.03;;
5591;SDS011;2818;49.790;9.958;2022-10-22T12:48:03;1.10;;;1.10;;
5591;SDS011;2818;49.790;9.958;2022-10-22T12:50:52;2.20;;;1.00;;
5591;SDS011;2818;49.790;9.958;2022-10-22T12:53:31;2.60;;;1.10;;
5591;SDS011;2818;49.790;9.958;2022-10-22T12:56:03;1.30;;;1.07;;
5591;SDS011;2818;49.790;9.958;2022-10-22T12:58:39;1.87;;;1.10;;
5591;SDS011;2818;49.790;9.958;2022-10-22T13:01:28;2.97;;;1.00;;
5591;SDS011;2818;49.790;9.958;2022-10-22T13:09:49;1.20;;;0.90;;
5591;SDS011;2818;49.790;9.958;2022-10-22T13:12:25;4.17;;;1.30;;
5591;SDS011;2818;49.790;9.958;2022-10-22T13:14:53;2.00;;;1.17;;
5591;SDS011;2818;49.790;9.958;2022-10-22T13:17:27;1.40;;;1.40;;
5591;SDS011;2818;49.790;9.958;2022-10-22T13:20:03;2.03;;;1.10;;
5591;SDS011;2818;49.790;9.958;2022-10-22T13:23:02;1.53;;;0.97;;
5591;SDS011;2818;49.790;9.958;2022-10-22T13:25:30;0.90;;;0.90;;
5591;SDS011;2818;49.790;9.958;2022-10-22T13:28:01;0.90;;;0.90;;
5591;SDS011;2818;49.790;9.958;2022-10-22T13:30:33;6.60;;;1.10;;
5591;SDS011;2818;49.790;9.958;2022-10-22T13:33:02;2.53;;;1.07;;
5591;SDS011;2818;49.790;9.958;2022-10-22T13:35:45;1.10;;;1.00;;
5591;SDS011;2818;49.790;9.958;2022-10-22T13:38:13;1.10;;;1.00;;
5591;SDS011;2818;49.790;9.958;2022-10-22T13:40:43;0.80;;;0.80;;
5591;SDS011;2818;49.790;9.958;2022-10-22T13:43:10;1.43;;;1.00;;
5591;SDS011;2818;49.790;9.958;2022-10-22T13:45:37;3.20;;;1.30;;
5591;SDS011;2818;49.790;9.958;2022-10-22T13:48:04;0.93;;;0.90;;
5591;SDS011;2818;49.790;9.958;2022-10-22T13:50:34;7.00;;;1.00;;
5591;SDS011;2818;49.790;9.958;2022-10-22T13:53:01;2.43;;;1.10;;
5591;SDS011;2818;49.790;9.958;2022-10-22T13:55:28;1.50;;;1.40;;
5591;SDS011;2818;49.790;9.958;2022-10-22T13:57:56;1.50;;;0.90;;
5591;SDS011;2818;49.790;9.958;2022-10-22T14:00:38;1.30;;;1.20;;
5591;SDS011;2818;49.790;9.958;2022-10-22T14:03:11;1.20;;;0.90;;
5591;SDS011;2818;49.790;9.958;2022-10-22T14:05:40;3.03;;;1.00;;
5591;SDS011;2818;49.790;9.958;2022-10-22T14:08:11;1.07;;;1.03;;
5591;SDS011;2818;49.790;9.958;2022-10-22T14:10:41;1.90;;;1.10;;
5591;SDS011;2818;49.790;9.958;2022-10-22T14:13:11;1.13;;;1.00;;
5591;SDS011;2818;49.790;9.958;2022-10-22T14:15:40;1.10;;;0.97;;
5591;SDS011;2818;49.790;9.958;2022-10-22T14:18:10;4.23;;;1.50;;
5591;SDS011;2818;49.790;9.958;2022-10-22T14:20:41;2.40;;;1.17;;
5591;SDS011;2818;49.790;9.958;2022-10-22T14:23:15;2.07;;;1.00;;
5591;SDS011;2818;49.790;9.958;2022-10-22T14:25:45;4.60;;;1.30;;
5591;SDS011;2818;49.790;9.958;2022-10-22T14:28:13;3.57;;;1.13;;
5591;SDS011;2818;49.790;9.958;2022-10-22T14:30:40;3.23;;;1.33;;
5591;SDS011;2818;49.790;9.958;2022-10-22T14:35:42;1.73;;;1.30;;
5591;SDS011;2818;49.790;9.958;2022-10-22T14:38:09;1.30;;;1.20;;
5591;SDS011;2818;49.790;9.958;2022-10-22T14:40:36;6.93;;;1.50;;
5591;SDS011;2818;49.790;9.958;2022-10-22T14:43:05;2.00;;;1.20;;
5591;SDS011;2818;49.790;9.958;2022-10-22T14:45:32;1.30;;;1.20;;
5591;SDS011;2818;49.790;9.958;2022-10-22T14:47:58;3.00;;;1.30;;
5591;SDS011;2818;49.790;9.958;2022-10-22T14:50:25;3.00;;;1.20;;
5591;SDS011;2818;49.790;9.958;2022-10-22T14:52:52;4.23;;;1.30;;
5591;SDS011;2818;49.790;9.958;2022-10-22T14:55:22;1.67;;;1.57;;
5591;SDS011;2818;49.790;9.958;2022-10-22T14:57:49;2.80;;;1.10;;
5591;SDS011;2818;49.790;9.958;2022-10-22T15:00:16;2.80;;;1.23;;
5591;SDS011;2818;49.790;9.958;2022-10-22T15:02:44;1.73;;;1.30;;
5591;SDS011;2818;49.790;9.958;2022-10-22T15:05:11;1.63;;;1.00;;
5591;SDS011;2818;49.790;9.958;2022-10-22T15:07:39;1.67;;;1.10;;
5591;SDS011;2818;49.790;9.958;2022-10-22T15:10:07;3.03;;;1.20;;
5591;SDS011;2818;49.790;9.958;2022-10-22T15:12:34;3.27;;;1.07;;
5591;SDS011;2818;49.790;9.958;2022-10-22T15:15:01;1.63;;;1.00;;
5591;SDS011;2818;49.790;9.958;2022-10-22T15:17:28;1.83;;;1.00;;
5591;SDS011;2818;49.790;9.958;2022-10-22T15:19:55;1.47;;;1.03;;
5591;SDS011;2818;49.790;9.958;2022-10-22T15:22:25;3.17;;;1.00;;
5591;SDS011;2818;49.790;9.958;2022-10-22T15:24:53;2.57;;;1.20;;
5591;SDS011;2818;49.790;9.958;2022-10-22T15:27:20;0.70;;;0.70;;
5591;SDS011;2818;49.790;9.958;2022-10-22T15:29:47;1.20;;;1.10;;
5591;SDS011;2818;49.790;9.958;2022-10-22T15:32:14;3.07;;;1.30;;
5591;SDS011;2818;49.790;9.958;2022-10-22T15:34:41;1.47;;;1.10;;
5591;SDS011;2818;49.790;9.958;2022-10-22T15:37:08;1.73;;;1.50;;
5591;SDS011;2818;49.790;9.958;2022-10-22T15:39:40;6.30;;;1.00;;
5591;SDS011;2818;49.790;9.958;2022-10-22T15:42:08;1.77;;;1.20;;
5591;SDS011;2818;49.790;9.958;2022-10-22T15:44:35;3.57;;;1.27;;
5591;SDS011;2818;49.790;9.958;2022-10-22T15:47:02;3.40;;;1.23;;
5591;SDS011;2818;49.790;9.958;2022-10-22T15:49:30;1.93;;;1.40;;
5591;SDS011;2818;49.790;9.958;2022-10-22T15:51:57;1.33;;;1.13;;
5591;SDS011;2818;49.790;9.958;2022-10-22T15:54:25;1.10;;;1.10;;
5591;SDS011;2818;49.790;9.958;2022-10-22T15:56:54;2.80;;;1.80;;
5591;SDS011;2818;49.790;9.958;2022-10-22T15:59:22;2.50;;;1.50;;
5591;SDS011;2818;49.790;9.958;2022-10-22T16:01:49;3.10;;;2.80;;
5591;SDS011;2818;49.790;9.958;2022-10-22T16:04:17;3.27;;;1.70;;
5591;SDS011;2818;49.790;9.958;2022-10-22T16:06:45;2.60;;;1.77;;
5591;SDS011;2818;49.790;9.958;2022-10-22T16:09:17;2.30;;;1.23;;
5591;SDS011;2818;49.790;9.958;2022-10-22T16:11:46;3.83;;;1.47;;
5591;SDS011;2818;49.790;9.958;2022-10-22T16:14:14;3.57;;;1.13;;
5591;SDS011;2818;49.790;9.958;2022-10-22T16:16:43;3.93;;;1.50;;
5591;SDS011;2818;49.790;9.958;2022-10-22T16:19:13;2.87;;;1.80;;
5591;SDS011;2818;49.790;9.958;2022-10-22T16:21:45;1.60;;;1.50;;
5591;SDS011;2818;49.790;9.958;2022-10-22T16:24:15;1.60;;;1.50;;
5591;SDS011;2818;49.790;9.958;2022-10-22T16:26:42;3.77;;;2.63;;
5591;SDS011;2818;49.790;9.958;2022-10-22T16:29:09;4.57;;;2.70;;
5591;SDS011;2818;49.790;9.958;2022-10-22T16:31:38;4.20;;;2.13;;
5591;SDS011;2818;49.790;9.958;2022-10-22T16:34:05;5.93;;;2.30;;
5591;SDS011;2818;49.790;9.958;2022-10-22T16:36:32;2.67;;;2.03;;
5591;SDS011;2818;49.790;9.958;2022-10-22T16:39:01;3.03;;;1.90;;
5591;SDS011;2818;49.790;9.958;2022-10-22T16:41:28;3.07;;;2.87;;
5591;SDS011;2818;49.790;9.958;2022-10-22T16:44:01;3.87;;;2.43;;
5591;SDS011;2818;49.790;9.958;2022-10-22T16:46:31;2.97;;;2.57;;
5591;SDS011;2818;49.790;9.958;2022-10-22T16:48:58;2.53;;;2.43;;
5591;SDS011;2818;49.790;9.958;2022-10-22T16:51:26;3.50;;;2.60;;
5591;SDS011;2818;49.790;9.958;2022-10-22T16:53:54;5.47;;;3.10;;
5591;SDS011;2818;49.790;9.958;2022-10-22T16:56:22;9.70;;;3.63;;
5591;SDS011;2818;49.790;9.958;2022-10-22T16:58:51;3.67;;;2.23;;
5591;SDS011;2818;49.790;9.958;2022-10-22T17:01:20;4.37;;;2.10;;
5591;SDS011;2818;49.790;9.958;2022-10-22T17:03:48;2.13;;;2.00;;
5591;SDS011;2818;49.790;9.958;2022-10-22T17:06:15;5.70;;;1.80;;
5591;SDS011;2818;49.790;9.958;2022-10-22T17:08:42;2.93;;;2.10;;
5591;SDS011;2818;49.790;9.958;2022-10-22T17:11:12;4.83;;;1.90;;
5591;SDS011;2818;49.790;9.958;2022-10-22T17:13:47;1.73;;;1.57;;
5591;SDS011;2818;49.790;9.958;2022-10-22T17:16:16;3.47;;;2.30;;
5591;SDS011;2818;49.790;9.958;2022-10-22T17:18:45;2.13;;;1.93;;
5591;SDS011;2818;49.790;9.958;2022-10-22T17:21:12;2.60;;;1.80;;
5591;SDS011;2818;49.790;9.958;2022-10-22T17:23:40;6.67;;;1.60;;
5591;SDS011;2818;49.790;9.958;2022-10-22T17:26:11;2.70;;;2.60;;
5591;SDS011;2818;49.790;9.958;2022-10-22T17:28:43;4.07;;;3.87;;
5591;SDS011;2818;49.790;9.958;2022-10-22T17:31:14;5.70;;;2.57;;
5591;SDS011;2818;49.790;9.958;2022-10-22T17:33:42;3.00;;;2.73;;